createdAt,value
2018-02-21T00:01:16.885Z,8.06
2018-02-21T00:03:44.388Z,7.98
2018-02-21T00:06:11.924Z,7.95
2018-02-21T00:08:39.681Z,8.03
2018-02-21T00:11:07.210Z,8.03
2018-02-21T00:13:34.856Z,8.00
2018-02-21T00:16:02.410Z,7.95
2018-02-21T00:18:29.970Z,7.95
2018-02-21T00:20:57.494Z,7.98
2018-02-21T00:23:25.031Z,7.96
2018-02-21T00:25:52.554Z,7.98
2018-02-21T00:28:20.129Z,7.99
2018-02-21T00:30:47.686Z,7.99
2018-02-21T00:33:15.341Z,7.99
2018-02-21T00:35:42.891Z,7.95
2018-02-21T00:38:10.452Z,7.99
2018-02-21T00:40:38.035Z,7.95
2018-02-21T00:43:05.630Z,7.91
2018-02-21T00:45:33.154Z,7.91
2018-02-21T00:48:00.709Z,7.97
2018-02-21T00:50:28.253Z,7.95
2018-02-21T00:52:55.792Z,7.93
2018-02-21T00:55:23.345Z,7.94
2018-02-21T00:57:50.873Z,7.95
2018-02-21T01:00:19.289Z,7.94
2018-02-21T01:02:46.915Z,7.92
2018-02-21T01:05:14.535Z,7.92
2018-02-21T01:07:42.091Z,7.89
2018-02-21T01:10:09.643Z,7.87
2018-02-21T01:12:37.216Z,7.89
2018-02-21T01:15:04.780Z,7.91
2018-02-21T01:17:32.305Z,7.87
2018-02-21T01:19:59.836Z,7.89
2018-02-21T01:22:27.433Z,7.83
2018-02-21T01:24:54.985Z,7.92
2018-02-21T01:27:22.533Z,7.94
2018-02-21T01:29:50.066Z,7.94
2018-02-21T01:32:17.614Z,7.95
2018-02-21T01:34:45.232Z,7.97
2018-02-21T01:37:12.859Z,7.97
2018-02-21T01:39:40.439Z,7.95
2018-02-21T01:42:08.014Z,7.96
2018-02-21T01:44:35.537Z,7.97
2018-02-21T01:47:03.077Z,7.96
2018-02-21T01:49:30.712Z,7.98
2018-02-21T01:51:58.309Z,7.97
2018-02-21T01:54:25.890Z,7.99
2018-02-21T01:56:53.454Z,7.95
2018-02-21T01:59:21.077Z,7.99
2018-02-21T02:01:48.668Z,8.04
2018-02-21T02:04:16.203Z,8.00
2018-02-21T02:06:43.793Z,7.91
2018-02-21T02:09:11.318Z,8.01
2018-02-21T02:11:38.833Z,8.00
2018-02-21T02:14:06.389Z,7.97
2018-02-21T02:16:33.931Z,7.97
2018-02-21T02:19:01.478Z,7.98
2018-02-21T02:21:29.024Z,7.98
2018-02-21T02:23:56.563Z,7.95
2018-02-21T02:26:24.126Z,7.96
2018-02-21T02:28:51.688Z,7.94
2018-02-21T02:31:19.241Z,7.95
2018-02-21T02:33:46.924Z,7.94
2018-02-21T02:36:14.462Z,7.93
2018-02-21T02:38:53.782Z,7.94
2018-02-21T02:41:21.310Z,7.93
2018-02-21T02:43:48.870Z,7.93
2018-02-21T02:46:16.415Z,7.94
2018-02-21T02:48:44.009Z,7.92
2018-02-21T02:51:11.555Z,7.93
2018-02-21T02:53:39.086Z,7.93
2018-02-21T02:56:06.729Z,7.90
2018-02-21T02:58:34.393Z,7.90
2018-02-21T03:01:01.962Z,7.91
2018-02-21T03:03:29.505Z,7.91
2018-02-21T03:05:57.081Z,7.90
2018-02-21T03:08:24.629Z,7.89
2018-02-21T03:10:53.136Z,7.88
2018-02-21T03:13:20.692Z,7.85
2018-02-21T03:15:48.235Z,7.81
2018-02-21T03:18:15.763Z,7.76
2018-02-21T03:20:43.292Z,7.74
2018-02-21T03:23:10.829Z,7.71
2018-02-21T03:25:38.378Z,7.72
2018-02-21T03:28:05.909Z,7.67
2018-02-21T03:30:33.471Z,7.63
2018-02-21T03:33:00.994Z,7.61
2018-02-21T03:35:28.517Z,7.57
2018-02-21T03:37:56.110Z,7.60
2018-02-21T03:40:23.670Z,7.60
2018-02-21T03:42:51.227Z,7.59
2018-02-21T03:45:18.752Z,7.59
2018-02-21T03:47:46.278Z,7.58
2018-02-21T03:50:13.812Z,7.58
2018-02-21T03:52:41.403Z,7.60
2018-02-21T03:55:08.945Z,7.58
2018-02-21T03:57:36.478Z,7.59
2018-02-21T04:00:05.539Z,7.54
2018-02-21T04:02:33.061Z,7.55
2018-02-21T04:05:00.817Z,7.51
2018-02-21T04:07:28.357Z,7.55
2018-02-21T04:09:55.911Z,7.53
2018-02-21T04:12:23.477Z,7.50
2018-02-21T04:14:51.892Z,7.48
2018-02-21T04:17:19.450Z,7.49
2018-02-21T04:19:47.039Z,7.49
2018-02-21T04:22:14.601Z,7.44
2018-02-21T04:24:42.300Z,7.46
2018-02-21T04:27:09.913Z,7.47
2018-02-21T04:29:37.434Z,7.47
2018-02-21T04:32:04.958Z,7.47
2018-02-21T04:34:32.501Z,7.44
2018-02-21T04:37:00.405Z,7.49
2018-02-21T04:39:27.970Z,7.44
2018-02-21T04:41:55.503Z,7.51
2018-02-21T04:44:23.044Z,7.51
2018-02-21T04:46:50.575Z,7.44
2018-02-21T04:49:18.115Z,7.54
2018-02-21T04:51:45.700Z,7.57
2018-02-21T04:54:13.327Z,7.53
2018-02-21T04:56:46.389Z,7.51
2018-02-21T04:59:17.746Z,7.50
2018-02-21T05:01:45.285Z,7.54
2018-02-21T05:04:12.831Z,7.54
2018-02-21T05:06:40.397Z,7.57
2018-02-21T05:09:07.984Z,7.58
2018-02-21T05:11:35.556Z,7.59
2018-02-21T05:14:03.132Z,7.52
2018-02-21T05:16:30.664Z,7.59
2018-02-21T05:18:58.206Z,7.59
2018-02-21T05:21:25.718Z,7.60
2018-02-21T05:23:53.334Z,7.64
2018-02-21T05:26:20.864Z,7.62
2018-02-21T05:28:48.392Z,7.65
2018-02-21T05:31:16.039Z,7.64
2018-02-21T05:33:43.567Z,7.71
2018-02-21T05:36:11.117Z,7.69
2018-02-21T05:38:38.675Z,7.67
2018-02-21T05:41:06.256Z,7.70
2018-02-21T05:43:33.845Z,7.70
2018-02-21T05:46:01.392Z,7.77
2018-02-21T05:48:29.002Z,7.79
2018-02-21T05:50:56.530Z,7.81
2018-02-21T05:53:24.108Z,7.84
2018-02-21T05:55:51.651Z,7.82
2018-02-21T05:58:19.239Z,7.86
2018-02-21T06:00:46.801Z,7.87
2018-02-21T06:03:14.378Z,7.89
2018-02-21T06:05:41.934Z,7.85
2018-02-21T06:08:10.212Z,7.91
2018-02-21T06:10:37.780Z,7.92
2018-02-21T06:13:05.398Z,7.93
2018-02-21T06:15:32.914Z,7.96
2018-02-21T06:18:00.457Z,7.94
2018-02-21T06:20:28.036Z,8.03
2018-02-21T06:22:55.911Z,8.06
2018-02-21T06:25:23.492Z,8.06
2018-02-21T06:27:51.023Z,8.09
2018-02-21T06:30:18.804Z,8.11
2018-02-21T06:32:46.431Z,8.05
2018-02-21T06:35:14.010Z,8.21
2018-02-21T06:37:41.533Z,8.26
2018-02-21T06:40:09.051Z,8.34
2018-02-21T06:42:36.601Z,8.45
2018-02-21T06:45:04.141Z,8.52
2018-02-21T06:47:31.664Z,8.65
2018-02-21T06:49:59.193Z,8.79
2018-02-21T06:52:26.722Z,8.95
2018-02-21T06:54:54.236Z,9.09
2018-02-21T06:57:21.751Z,9.16
2018-02-21T06:59:49.277Z,9.22
2018-02-21T07:02:28.393Z,9.32
2018-02-21T07:04:55.920Z,9.50
2018-02-21T07:07:23.457Z,9.64
2018-02-21T07:09:50.974Z,9.89
2018-02-21T07:12:18.477Z,10.13
2018-02-21T07:14:45.986Z,10.26
2018-02-21T07:17:13.982Z,10.35
2018-02-21T07:19:41.529Z,10.40
2018-02-21T07:22:09.052Z,10.41
2018-02-21T07:24:36.573Z,10.54
2018-02-21T07:27:04.117Z,10.57
2018-02-21T07:29:31.655Z,10.53
2018-02-21T07:31:59.219Z,10.53
2018-02-21T07:34:27.019Z,10.60
2018-02-21T07:36:54.556Z,10.51
2018-02-21T07:39:22.098Z,10.50
2018-02-21T07:41:49.658Z,10.55
2018-02-21T07:44:17.200Z,10.64
2018-02-21T07:46:44.715Z,10.70
2018-02-21T07:49:12.258Z,10.79
2018-02-21T07:51:39.766Z,10.91
2018-02-21T07:54:07.331Z,10.98
2018-02-21T07:56:34.956Z,10.98
2018-02-21T07:59:02.490Z,11.07
2018-02-21T08:01:30.068Z,11.01
2018-02-21T08:03:57.606Z,11.06
2018-02-21T08:06:25.142Z,11.08
2018-02-21T08:08:52.662Z,11.15
2018-02-21T08:11:20.207Z,11.20
2018-02-21T08:13:47.759Z,11.12
2018-02-21T08:16:15.270Z,11.13
2018-02-21T08:18:42.779Z,11.15
2018-02-21T08:21:10.303Z,11.15
2018-02-21T08:23:37.872Z,11.20
2018-02-21T08:26:05.408Z,11.27
2018-02-21T08:28:32.941Z,11.35
2018-02-21T08:31:00.484Z,11.46
2018-02-21T08:33:27.998Z,11.56
2018-02-21T08:35:55.503Z,11.56
2018-02-21T08:38:23.019Z,11.52
2018-02-21T08:40:50.542Z,11.55
2018-02-21T08:43:18.095Z,11.47
2018-02-21T08:45:45.618Z,11.56
2018-02-21T08:48:13.133Z,11.68
2018-02-21T08:50:40.679Z,11.74
2018-02-21T08:53:08.167Z,11.69
2018-02-21T08:55:35.678Z,11.65
2018-02-21T08:58:03.217Z,11.58
2018-02-21T09:00:30.786Z,11.66
2018-02-21T09:02:58.312Z,11.65
2018-02-21T09:05:26.004Z,11.69
2018-02-21T09:07:53.551Z,11.81
2018-02-21T09:10:21.098Z,12.04
2018-02-21T09:12:48.643Z,12.10
2018-02-21T09:15:16.465Z,12.11
2018-02-21T09:17:43.981Z,11.90
2018-02-21T09:20:11.503Z,11.67
2018-02-21T09:22:39.008Z,11.55
2018-02-21T09:25:06.547Z,11.49
2018-02-21T09:27:34.061Z,11.40
2018-02-21T09:30:01.580Z,11.36
2018-02-21T09:32:29.153Z,11.27
2018-02-21T09:34:56.725Z,11.18
2018-02-21T09:37:24.268Z,11.15
2018-02-21T09:39:51.795Z,11.09
2018-02-21T09:42:19.340Z,11.19
2018-02-21T09:44:46.885Z,11.18
2018-02-21T09:47:14.639Z,11.14
2018-02-21T09:49:42.294Z,11.14
2018-02-21T09:52:09.814Z,11.12
2018-02-21T09:54:37.348Z,11.10
2018-02-21T09:57:04.865Z,11.08
2018-02-21T09:59:32.396Z,11.08
2018-02-21T10:01:59.943Z,11.13
2018-02-21T10:04:27.449Z,11.11
2018-02-21T10:06:55.095Z,11.08
2018-02-21T10:09:22.661Z,11.09
2018-02-21T10:11:50.194Z,11.06
2018-02-21T10:14:17.707Z,11.11
2018-02-21T10:16:45.275Z,11.13
2018-02-21T10:19:12.805Z,11.08
2018-02-21T10:21:40.361Z,11.04
2018-02-21T10:24:07.878Z,11.03
2018-02-21T10:26:35.408Z,11.01
2018-02-21T10:29:02.935Z,10.98
2018-02-21T10:31:30.525Z,10.85
2018-02-21T10:33:58.056Z,10.95
2018-02-21T10:36:25.626Z,10.97
2018-02-21T10:38:53.181Z,11.03
2018-02-21T10:41:20.721Z,11.07
2018-02-21T10:43:48.743Z,11.08
2018-02-21T10:46:16.278Z,11.08
2018-02-21T10:48:43.832Z,11.18
2018-02-21T10:51:11.406Z,11.18
2018-02-21T10:53:38.969Z,11.10
2018-02-21T10:56:06.522Z,11.08
2018-02-21T10:58:34.058Z,11.05
2018-02-21T11:01:07.104Z,11.22
2018-02-21T11:03:34.627Z,11.29
2018-02-21T11:06:02.157Z,11.36
2018-02-21T11:08:29.688Z,11.35
2018-02-21T11:10:57.218Z,11.28
2018-02-21T11:13:24.767Z,11.23
2018-02-21T11:15:52.293Z,11.16
2018-02-21T11:18:19.814Z,11.14
2018-02-21T11:20:47.342Z,11.17
2018-02-21T11:23:14.858Z,11.17
2018-02-21T11:25:42.389Z,11.27
2018-02-21T11:28:09.898Z,11.41
2018-02-21T11:30:37.460Z,11.61
2018-02-21T11:33:04.984Z,11.90
2018-02-21T11:35:32.493Z,12.07
2018-02-21T11:38:00.000Z,12.09
2018-02-21T11:40:27.526Z,12.40
2018-02-21T11:42:55.096Z,12.56
2018-02-21T11:45:22.632Z,12.61
2018-02-21T11:47:50.152Z,12.69
2018-02-21T11:50:17.681Z,12.71
2018-02-21T11:52:45.203Z,12.44
2018-02-21T11:55:12.751Z,12.32
2018-02-21T11:57:40.440Z,12.19
2018-02-21T12:00:08.162Z,12.21
2018-02-21T12:02:35.698Z,12.33
2018-02-21T12:05:03.209Z,12.32
2018-02-21T12:07:30.729Z,12.38
2018-02-21T12:09:58.258Z,12.42
2018-02-21T12:12:25.802Z,12.60
2018-02-21T12:14:53.324Z,12.67
2018-02-21T12:17:20.846Z,12.81
2018-02-21T12:19:48.363Z,12.89
2018-02-21T12:22:15.877Z,12.97
2018-02-21T12:24:43.432Z,13.13
2018-02-21T12:27:10.949Z,13.14
2018-02-21T12:29:38.474Z,13.03
2018-02-21T12:32:07.604Z,13.02
2018-02-21T12:34:35.767Z,12.89
2018-02-21T12:37:03.311Z,12.82
2018-02-21T12:39:35.218Z,12.82
2018-02-21T12:42:02.752Z,12.68
2018-02-21T12:44:30.287Z,12.65
2018-02-21T12:46:57.818Z,12.65
2018-02-21T12:49:25.359Z,12.77
2018-02-21T12:51:52.888Z,12.71
2018-02-21T12:54:20.415Z,12.71
2018-02-21T12:56:47.970Z,12.69
2018-02-21T12:59:15.621Z,12.48
2018-02-21T13:01:43.157Z,12.30
2018-02-21T13:04:10.708Z,12.13
2018-02-21T13:06:38.228Z,11.96
2018-02-21T13:09:05.777Z,11.79
2018-02-21T13:11:33.302Z,11.81
2018-02-21T13:14:00.874Z,11.72
2018-02-21T13:16:28.402Z,11.68
2018-02-21T13:18:55.920Z,11.68
2018-02-21T13:21:23.437Z,11.73
2018-02-21T13:23:50.972Z,11.62
2018-02-21T13:26:18.544Z,11.52
2018-02-21T13:28:46.078Z,11.51
2018-02-21T13:31:13.738Z,11.57
2018-02-21T13:33:41.283Z,11.49
2018-02-21T13:36:08.830Z,11.38
2018-02-21T13:38:36.367Z,11.30
2018-02-21T13:41:03.937Z,11.22
2018-02-21T13:43:32.396Z,11.20
2018-02-21T13:46:00.012Z,11.16
2018-02-21T13:48:31.615Z,10.95
2018-02-21T13:50:59.253Z,11.08
2018-02-21T13:53:26.838Z,11.05
2018-02-21T13:55:54.510Z,10.99
2018-02-21T13:58:22.028Z,10.90
2018-02-21T14:00:49.581Z,10.89
2018-02-21T14:03:17.093Z,10.86
2018-02-21T14:05:44.628Z,10.85
2018-02-21T14:08:12.153Z,10.79
2018-02-21T14:10:39.661Z,10.83
2018-02-21T14:13:07.216Z,10.85
2018-02-21T14:15:34.729Z,10.77
2018-02-21T14:18:02.262Z,10.69
2018-02-21T14:20:29.801Z,10.62
2018-02-21T14:22:57.360Z,10.61
2018-02-21T14:25:24.897Z,10.52
2018-02-21T14:27:52.429Z,10.46
2018-02-21T14:30:20.009Z,10.42
2018-02-21T14:32:47.533Z,10.34
2018-02-21T14:35:15.077Z,10.26
2018-02-21T14:37:42.602Z,10.12
2018-02-21T14:40:10.152Z,10.07
2018-02-21T14:42:37.695Z,9.95
2018-02-21T14:45:05.223Z,9.88
2018-02-21T14:47:32.808Z,9.85
2018-02-21T14:50:00.391Z,9.84
2018-02-21T14:52:28.893Z,9.81
2018-02-21T14:54:57.178Z,9.77
2018-02-21T14:57:24.703Z,9.75
2018-02-21T14:59:52.219Z,9.68
2018-02-21T15:02:19.776Z,9.70
2018-02-21T15:04:47.423Z,9.66
2018-02-21T15:07:14.993Z,9.57
2018-02-21T15:09:42.522Z,9.63
2018-02-21T15:12:10.039Z,9.58
2018-02-21T15:14:37.586Z,9.57
2018-02-21T15:17:05.129Z,9.86
2018-02-21T15:19:32.677Z,9.84
2018-02-21T15:22:00.531Z,9.60
2018-02-21T15:24:28.075Z,9.36
2018-02-21T15:26:55.696Z,9.24
2018-02-21T15:29:23.237Z,9.24
2018-02-21T15:31:50.800Z,9.28
2018-02-21T15:34:18.349Z,9.27
2018-02-21T15:36:45.929Z,9.38
2018-02-21T15:39:13.469Z,9.19
2018-02-21T15:41:41.016Z,9.17
2018-02-21T15:44:08.582Z,9.23
2018-02-21T15:46:36.115Z,9.05
2018-02-21T15:49:03.635Z,8.89
2018-02-21T15:51:31.149Z,8.36
2018-02-21T15:53:58.668Z,8.09
2018-02-21T15:56:26.224Z,7.90
2018-02-21T15:58:53.788Z,7.66
2018-02-21T16:01:21.311Z,8.10
2018-02-21T16:03:48.854Z,8.23
2018-02-21T16:06:16.381Z,8.21
2018-02-21T16:08:43.897Z,8.16
2018-02-21T16:11:11.432Z,7.86
2018-02-21T16:13:38.955Z,8.02
2018-02-21T16:16:06.735Z,7.91
2018-02-21T16:18:34.256Z,7.91
2018-02-21T16:21:01.770Z,7.86
2018-02-21T16:23:29.499Z,7.87
2018-02-21T16:25:57.035Z,7.77
2018-02-21T16:28:24.563Z,7.65
2018-02-21T16:30:52.120Z,7.88
2018-02-21T16:33:19.643Z,7.57
2018-02-21T16:35:47.184Z,7.35
2018-02-21T16:38:14.808Z,7.43
2018-02-21T16:40:42.365Z,7.72
2018-02-21T16:43:09.912Z,7.89
2018-02-21T16:45:37.425Z,8.13
2018-02-21T16:48:04.944Z,8.12
2018-02-21T16:50:32.475Z,8.11
2018-02-21T16:53:00.002Z,7.90
2018-02-21T16:55:27.553Z,8.06
2018-02-21T16:57:55.145Z,7.80
2018-02-21T17:00:22.703Z,7.99
2018-02-21T17:02:54.501Z,7.99
2018-02-21T17:05:22.129Z,8.04
2018-02-21T17:07:49.657Z,8.19
2018-02-21T17:10:17.225Z,8.14
2018-02-21T17:12:45.006Z,8.12
2018-02-21T17:15:12.561Z,7.91
2018-02-21T17:17:40.123Z,7.79
2018-02-21T17:20:07.642Z,7.48
2018-02-21T17:22:35.174Z,7.63
2018-02-21T17:25:02.682Z,7.75
2018-02-21T17:27:30.303Z,7.81
2018-02-21T17:29:57.876Z,7.73
2018-02-21T17:32:25.795Z,7.98
2018-02-21T17:34:53.354Z,8.07
2018-02-21T17:37:20.978Z,7.45
2018-02-21T17:39:48.791Z,7.70
2018-02-21T17:42:16.309Z,7.56
2018-02-21T17:44:43.840Z,7.39
2018-02-21T17:47:11.390Z,7.24
2018-02-21T17:49:39.122Z,7.29
2018-02-21T17:52:06.660Z,7.33
2018-02-21T17:54:34.238Z,7.89
2018-02-21T17:57:01.871Z,7.94
2018-02-21T17:59:29.717Z,8.09
2018-02-21T18:01:57.603Z,8.20
2018-02-21T18:07:46.335Z,8.28
2018-02-21T18:10:13.865Z,8.32
2018-02-21T18:12:41.510Z,8.33
2018-02-21T18:15:09.963Z,8.32
2018-02-21T18:17:37.518Z,8.35
2018-02-21T18:20:05.083Z,8.40
2018-02-21T18:22:32.624Z,8.41
2018-02-21T18:25:00.173Z,8.42
2018-02-21T18:27:27.769Z,8.40
2018-02-21T18:29:55.377Z,8.43
2018-02-21T18:32:22.978Z,8.47
2018-02-21T18:34:50.702Z,8.44
2018-02-21T18:37:18.334Z,8.46
2018-02-21T18:39:45.926Z,8.49
2018-02-21T18:42:13.466Z,8.50
2018-02-21T18:44:41.037Z,8.50
2018-02-21T18:47:08.554Z,8.51
2018-02-21T18:49:36.155Z,8.49
2018-02-21T18:52:03.693Z,8.53
2018-02-21T18:54:32.022Z,8.55
2018-02-21T18:56:59.611Z,8.55
2018-02-21T18:59:27.227Z,8.58
2018-02-21T19:01:54.888Z,8.51
2018-02-21T19:04:22.455Z,8.58
2018-02-21T19:06:50.155Z,8.62
2018-02-21T19:09:17.731Z,8.61
2018-02-21T19:11:45.271Z,8.63
2018-02-21T19:14:12.846Z,8.63
2018-02-21T19:16:40.418Z,8.63
2018-02-21T19:19:08.101Z,8.62
2018-02-21T19:21:36.587Z,8.66
2018-02-21T19:24:04.187Z,8.45
2018-02-21T19:26:33.392Z,8.66
2018-02-21T19:29:04.287Z,8.71
2018-02-21T19:31:31.896Z,8.68
2018-02-21T19:33:59.523Z,8.67
2018-02-21T19:36:30.035Z,8.68
2018-02-21T19:39:04.310Z,8.68
2018-02-21T19:41:33.838Z,8.72
2018-02-21T19:44:01.394Z,8.67
2018-02-21T19:46:28.950Z,8.71
2018-02-21T19:48:56.492Z,8.68
2018-02-21T19:51:24.081Z,9.07
2018-02-21T19:53:51.596Z,9.15
2018-02-21T19:56:19.217Z,9.23
2018-02-21T19:58:46.825Z,9.20
2018-02-21T20:01:14.618Z,9.10
2018-02-21T20:03:42.139Z,9.02
2018-02-21T20:06:09.716Z,9.04
2018-02-21T20:08:37.373Z,9.03
2018-02-21T20:11:04.945Z,8.99
2018-02-21T20:13:32.462Z,8.99
2018-02-21T20:16:00.019Z,9.01
2018-02-21T20:18:27.566Z,8.96
2018-02-21T20:20:55.174Z,8.84
2018-02-21T20:23:23.126Z,8.92
2018-02-21T20:25:50.694Z,8.88
2018-02-21T20:28:18.223Z,8.90
2018-02-21T20:30:45.819Z,8.92
2018-02-21T20:33:13.382Z,8.75
2018-02-21T20:35:40.977Z,8.89
2018-02-21T20:38:08.596Z,8.92
2018-02-21T20:40:36.174Z,8.90
2018-02-21T20:43:03.771Z,8.94
2018-02-21T20:45:31.303Z,8.96
2018-02-21T20:47:58.879Z,8.91
2018-02-21T20:50:26.460Z,8.90
2018-02-21T20:52:54.001Z,8.86
2018-02-21T20:55:21.558Z,8.90
2018-02-21T20:57:49.122Z,8.89
2018-02-21T21:00:16.690Z,8.88
2018-02-21T21:02:44.215Z,8.85
2018-02-21T21:05:11.836Z,8.88
2018-02-21T21:07:39.426Z,8.88
2018-02-21T21:10:06.960Z,8.88
2018-02-21T21:12:34.574Z,8.88
2018-02-21T21:15:03.056Z,8.88
2018-02-21T21:17:30.589Z,8.89
2018-02-21T21:19:58.160Z,8.86
2018-02-21T21:22:26.475Z,8.85
2018-02-21T21:24:54.014Z,8.82
2018-02-21T21:27:21.579Z,8.81
2018-02-21T21:29:49.108Z,8.77
2018-02-21T21:32:16.697Z,8.81
2018-02-21T21:34:44.269Z,8.83
2018-02-21T21:37:11.818Z,8.82
2018-02-21T21:39:39.331Z,8.82
2018-02-21T21:42:06.934Z,8.83
2018-02-21T21:44:34.508Z,8.82
2018-02-21T21:47:02.061Z,8.80
2018-02-21T21:49:32.868Z,8.80
2018-02-21T21:51:57.186Z,8.80
2018-02-21T21:54:24.736Z,8.83
2018-02-21T21:56:52.381Z,8.76
2018-02-21T21:59:19.988Z,8.81
2018-02-21T22:01:47.547Z,8.76
2018-02-21T22:04:15.128Z,8.75
2018-02-21T22:06:42.693Z,8.75
2018-02-21T22:09:10.211Z,8.75
2018-02-21T22:11:37.770Z,8.77
2018-02-21T22:14:06.205Z,8.77
2018-02-21T22:16:33.841Z,8.79
2018-02-21T22:19:01.366Z,8.78
2018-02-21T22:21:28.971Z,8.77
2018-02-21T22:23:56.646Z,8.78
2018-02-21T22:26:24.252Z,8.76
2018-02-21T22:28:51.775Z,8.76
2018-02-21T22:31:19.443Z,8.78
2018-02-21T22:33:47.057Z,8.76
2018-02-21T22:36:14.639Z,8.74
2018-02-21T22:38:42.155Z,8.74
2018-02-21T22:41:09.756Z,8.76
2018-02-21T22:43:37.301Z,8.76
2018-02-21T22:46:05.634Z,8.75
2018-02-21T22:48:33.160Z,8.76
2018-02-21T22:51:00.708Z,8.73
2018-02-21T22:53:28.221Z,8.76
2018-02-21T22:55:55.760Z,8.76
2018-02-21T22:58:23.317Z,8.77
2018-02-21T23:00:50.971Z,8.77
2018-02-21T23:03:18.560Z,8.77
2018-02-21T23:05:46.129Z,8.76
2018-02-21T23:08:13.744Z,8.78
2018-02-21T23:10:41.327Z,8.82
2018-02-21T23:13:08.903Z,8.84
2018-02-21T23:15:36.418Z,8.80
2018-02-21T23:18:03.916Z,8.81
2018-02-21T23:20:31.446Z,8.81
2018-02-21T23:22:58.958Z,8.80
2018-02-21T23:25:26.648Z,8.80
2018-02-21T23:27:54.181Z,8.75
2018-02-21T23:30:21.723Z,8.83
2018-02-21T23:32:49.234Z,8.82
2018-02-21T23:35:16.792Z,8.83
2018-02-21T23:37:44.408Z,8.83
2018-02-21T23:40:11.960Z,8.79
2018-02-21T23:42:39.520Z,8.84
2018-02-21T23:45:07.038Z,8.85
2018-02-21T23:47:34.572Z,8.88
2018-02-21T23:50:02.088Z,8.90
2018-02-21T23:52:29.610Z,8.87
2018-02-21T23:54:57.158Z,8.85
2018-02-21T23:57:25.043Z,8.86
2018-02-21T23:59:52.561Z,8.78
